sensor_id;sensor_type;location;lat;lon;timestamp;temperature;humidity
77523;SHT31;66637;-29.628;-49.938;2023-07-09T00:02:30;17.59;83.93
77523;SHT31;66637;-29.628;-49.938;2023-07-09T00:05:49;17.62;83.80
77523;SHT31;66637;-29.628;-49.938;2023-07-09T00:08:40;17.62;83.94
77523;SHT31;66637;-29.628;-49.938;2023-07-09T00:11:41;17.62;83.87
77523;SHT31;66637;-29.628;-49.938;2023-07-09T00:14:53;17.59;83.79
77523;SHT31;66637;-29.628;-49.938;2023-07-09T00:17:36;17.56;83.44
77523;SHT31;66637;-29.628;-49.938;2023-07-09T00:20:40;17.56;83.89
77523;SHT31;66637;-29.628;-49.938;2023-07-09T00:23:39;17.56;83.93
77523;SHT31;66637;-29.628;-49.938;2023-07-09T00:26:18;17.62;83.93
77523;SHT31;66637;-29.628;-49.938;2023-07-09T00:29:03;17.61;83.78
77523;SHT31;66637;-29.628;-49.938;2023-07-09T00:31:58;17.62;83.64
77523;SHT31;66637;-29.628;-49.938;2023-07-09T00:35:55;17.52;84.02
77523;SHT31;66637;-29.628;-49.938;2023-07-09T00:39:04;17.59;84.00
77523;SHT31;66637;-29.628;-49.938;2023-07-09T00:41:45;17.43;83.97
77523;SHT31;66637;-29.628;-49.938;2023-07-09T00:44:28;17.32;84.05
77523;SHT31;66637;-29.628;-49.938;2023-07-09T00:47:28;17.23;84.04
77523;SHT31;66637;-29.628;-49.938;2023-07-09T00:50:37;17.19;83.96
77523;SHT31;66637;-29.628;-49.938;2023-07-09T00:53:37;17.08;84.27
77523;SHT31;66637;-29.628;-49.938;2023-07-09T00:56:43;17.07;84.62
77523;SHT31;66637;-29.628;-49.938;2023-07-09T00:59:20;17.02;84.46
77523;SHT31;66637;-29.628;-49.938;2023-07-09T01:02:03;16.88;84.62
77523;SHT31;66637;-29.628;-49.938;2023-07-09T01:05:45;16.89;84.65
77523;SHT31;66637;-29.628;-49.938;2023-07-09T01:08:51;16.70;84.11
77523;SHT31;66637;-29.628;-49.938;2023-07-09T01:11:43;16.70;84.51
77523;SHT31;66637;-29.628;-49.938;2023-07-09T01:14:50;16.68;84.79
77523;SHT31;66637;-29.628;-49.938;2023-07-09T01:17:38;16.68;84.38
77523;SHT31;66637;-29.628;-49.938;2023-07-09T01:20:38;16.67;84.31
77523;SHT31;66637;-29.628;-49.938;2023-07-09T01:23:53;16.74;84.81
77523;SHT31;66637;-29.628;-49.938;2023-07-09T01:27:04;16.80;84.52
77523;SHT31;66637;-29.628;-49.938;2023-07-09T01:30:17;16.72;84.54
77523;SHT31;66637;-29.628;-49.938;2023-07-09T01:33:25;16.68;84.53
77523;SHT31;66637;-29.628;-49.938;2023-07-09T01:36:20;16.67;84.50
77523;SHT31;66637;-29.628;-49.938;2023-07-09T01:39:20;16.72;84.80
77523;SHT31;66637;-29.628;-49.938;2023-07-09T01:42:13;16.61;84.44
77523;SHT31;66637;-29.628;-49.938;2023-07-09T01:45:10;16.51;84.25
77523;SHT31;66637;-29.628;-49.938;2023-07-09T01:48:21;16.43;84.26
77523;SHT31;66637;-29.628;-49.938;2023-07-09T01:51:58;16.40;84.33
77523;SHT31;66637;-29.628;-49.938;2023-07-09T01:55:11;16.40;84.58
77523;SHT31;66637;-29.628;-49.938;2023-07-09T01:58:16;16.39;84.59
77523;SHT31;66637;-29.628;-49.938;2023-07-09T02:01:29;16.30;84.42
77523;SHT31;66637;-29.628;-49.938;2023-07-09T02:05:03;16.36;83.97
77523;SHT31;66637;-29.628;-49.938;2023-07-09T02:07:50;16.26;83.99
77523;SHT31;66637;-29.628;-49.938;2023-07-09T02:10:59;16.23;84.30
77523;SHT31;66637;-29.628;-49.938;2023-07-09T02:13:33;16.14;83.74
77523;SHT31;66637;-29.628;-49.938;2023-07-09T02:16:19;16.20;84.52
77523;SHT31;66637;-29.628;-49.938;2023-07-09T02:19:17;16.17;84.47
77523;SHT31;66637;-29.628;-49.938;2023-07-09T02:22:08;16.16;84.84
77523;SHT31;66637;-29.628;-49.938;2023-07-09T02:25:24;16.23;84.58
77523;SHT31;66637;-29.628;-49.938;2023-07-09T02:28:18;16.14;84.65
77523;SHT31;66637;-29.628;-49.938;2023-07-09T02:31:23;16.09;84.51
77523;SHT31;66637;-29.628;-49.938;2023-07-09T02:34:25;16.19;85.12
77523;SHT31;66637;-29.628;-49.938;2023-07-09T02:37:37;16.16;85.65
77523;SHT31;66637;-29.628;-49.938;2023-07-09T02:40:15;16.20;85.32
77523;SHT31;66637;-29.628;-49.938;2023-07-09T02:43:13;16.10;85.36
77523;SHT31;66637;-29.628;-49.938;2023-07-09T02:46:05;16.03;84.90
77523;SHT31;66637;-29.628;-49.938;2023-07-09T02:49:14;16.03;85.59
77523;SHT31;66637;-29.628;-49.938;2023-07-09T02:52:10;16.02;85.49
77523;SHT31;66637;-29.628;-49.938;2023-07-09T02:55:08;16.05;85.51
77523;SHT31;66637;-29.628;-49.938;2023-07-09T02:58:01;15.95;85.04
77523;SHT31;66637;-29.628;-49.938;2023-07-09T03:01:08;15.98;85.29
77523;SHT31;66637;-29.628;-49.938;2023-07-09T03:04:21;15.98;85.08
77523;SHT31;66637;-29.628;-49.938;2023-07-09T03:06:58;15.98;85.51
77523;SHT31;66637;-29.628;-49.938;2023-07-09T03:09:46;15.99;85.37
77523;SHT31;66637;-29.628;-49.938;2023-07-09T03:12:20;16.00;85.94
77523;SHT31;66637;-29.628;-49.938;2023-07-09T03:15:26;15.98;85.58
77523;SHT31;66637;-29.628;-49.938;2023-07-09T03:18:01;15.89;85.44
77523;SHT31;66637;-29.628;-49.938;2023-07-09T03:20:46;15.88;85.81
77523;SHT31;66637;-29.628;-49.938;2023-07-09T03:23:24;15.93;85.73
77523;SHT31;66637;-29.628;-49.938;2023-07-09T03:26:05;15.90;85.99
77523;SHT31;66637;-29.628;-49.938;2023-07-09T03:29:05;15.99;86.02
77523;SHT31;66637;-29.628;-49.938;2023-07-09T03:32:12;15.78;85.09
77523;SHT31;66637;-29.628;-49.938;2023-07-09T03:34:53;15.81;85.26
77523;SHT31;66637;-29.628;-49.938;2023-07-09T03:37:25;15.90;85.16
77523;SHT31;66637;-29.628;-49.938;2023-07-09T03:40:22;15.75;84.82
77523;SHT31;66637;-29.628;-49.938;2023-07-09T03:43:22;15.66;85.09
77523;SHT31;66637;-29.628;-49.938;2023-07-09T03:46:40;15.56;85.15
77523;SHT31;66637;-29.628;-49.938;2023-07-09T03:49:25;15.66;85.45
77523;SHT31;66637;-29.628;-49.938;2023-07-09T03:52:14;15.62;85.26
77523;SHT31;66637;-29.628;-49.938;2023-07-09T03:55:22;15.66;85.88
77523;SHT31;66637;-29.628;-49.938;2023-07-09T03:58:48;15.68;85.68
77523;SHT31;66637;-29.628;-49.938;2023-07-09T04:01:32;15.62;85.72
77523;SHT31;66637;-29.628;-49.938;2023-07-09T04:04:07;15.58;85.69
77523;SHT31;66637;-29.628;-49.938;2023-07-09T04:07:02;15.61;85.96
77523;SHT31;66637;-29.628;-49.938;2023-07-09T04:09:43;15.61;85.90
77523;SHT31;66637;-29.628;-49.938;2023-07-09T04:12:17;15.59;86.08
77523;SHT31;66637;-29.628;-49.938;2023-07-09T04:15:09;15.61;85.89
77523;SHT31;66637;-29.628;-49.938;2023-07-09T04:18:04;15.44;85.62
77523;SHT31;66637;-29.628;-49.938;2023-07-09T04:20:55;15.41;85.53
77523;SHT31;66637;-29.628;-49.938;2023-07-09T04:23:51;15.34;85.14
77523;SHT31;66637;-29.628;-49.938;2023-07-09T04:26:36;15.27;84.68
77523;SHT31;66637;-29.628;-49.938;2023-07-09T04:29:16;15.24;85.22
77523;SHT31;66637;-29.628;-49.938;2023-07-09T04:32:12;15.20;85.43
77523;SHT31;66637;-29.628;-49.938;2023-07-09T04:35:03;15.21;85.50
77523;SHT31;66637;-29.628;-49.938;2023-07-09T04:37:45;15.34;85.90
77523;SHT31;66637;-29.628;-49.938;2023-07-09T04:43:55;15.31;85.63
77523;SHT31;66637;-29.628;-49.938;2023-07-09T04:46:30;15.24;85.12
77523;SHT31;66637;-29.628;-49.938;2023-07-09T04:49:22;15.14;85.56
77523;SHT31;66637;-29.628;-49.938;2023-07-09T04:52:16;15.28;85.84
77523;SHT31;66637;-29.628;-49.938;2023-07-09T04:55:18;15.18;85.90
77523;SHT31;66637;-29.628;-49.938;2023-07-09T04:58:15;15.24;86.21
77523;SHT31;66637;-29.628;-49.938;2023-07-09T05:01:13;15.10;85.41
77523;SHT31;66637;-29.628;-49.938;2023-07-09T05:03:47;15.04;85.44
77523;SHT31;66637;-29.628;-49.938;2023-07-09T05:06:41;15.12;85.96
77523;SHT31;66637;-29.628;-49.938;2023-07-09T05:09:33;15.23;85.36
77523;SHT31;66637;-29.628;-49.938;2023-07-09T05:12:09;15.20;85.50
77523;SHT31;66637;-29.628;-49.938;2023-07-09T05:15:07;15.28;85.76
77523;SHT31;66637;-29.628;-49.938;2023-07-09T05:18:01;15.31;85.72
77523;SHT31;66637;-29.628;-49.938;2023-07-09T05:20:40;15.27;85.34
77523;SHT31;66637;-29.628;-49.938;2023-07-09T05:24:06;15.12;85.24
77523;SHT31;66637;-29.628;-49.938;2023-07-09T05:26:45;15.12;85.78
77523;SHT31;66637;-29.628;-49.938;2023-07-09T05:29:31;15.21;85.78
77523;SHT31;66637;-29.628;-49.938;2023-07-09T05:32:16;15.18;85.98
77523;SHT31;66637;-29.628;-49.938;2023-07-09T05:35:04;15.25;86.14
77523;SHT31;66637;-29.628;-49.938;2023-07-09T05:37:42;15.24;86.17
77523;SHT31;66637;-29.628;-49.938;2023-07-09T05:40:38;15.24;85.81
77523;SHT31;66637;-29.628;-49.938;2023-07-09T05:43:45;15.23;85.33
77523;SHT31;66637;-29.628;-49.938;2023-07-09T05:46:41;15.08;85.37
77523;SHT31;66637;-29.628;-49.938;2023-07-09T05:49:17;15.07;85.52
77523;SHT31;66637;-29.628;-49.938;2023-07-09T05:52:21;15.23;86.19
77523;SHT31;66637;-29.628;-49.938;2023-07-09T05:55:24;15.34;86.34
77523;SHT31;66637;-29.628;-49.938;2023-07-09T05:58:08;15.30;86.07
77523;SHT31;66637;-29.628;-49.938;2023-07-09T06:01:00;15.39;86.00
77523;SHT31;66637;-29.628;-49.938;2023-07-09T06:03:56;15.39;86.25
77523;SHT31;66637;-29.628;-49.938;2023-07-09T06:06:44;15.41;86.06
77523;SHT31;66637;-29.628;-49.938;2023-07-09T06:09:58;15.42;86.20
77523;SHT31;66637;-29.628;-49.938;2023-07-09T06:12:44;15.44;86.21
77523;SHT31;66637;-29.628;-49.938;2023-07-09T06:15:25;15.45;86.05
77523;SHT31;66637;-29.628;-49.938;2023-07-09T06:18:07;15.42;85.96
77523;SHT31;66637;-29.628;-49.938;2023-07-09T06:21:05;15.28;85.48
77523;SHT31;66637;-29.628;-49.938;2023-07-09T06:24:23;15.28;85.47
77523;SHT31;66637;-29.628;-49.938;2023-07-09T06:27:10;15.24;85.51
77523;SHT31;66637;-29.628;-49.938;2023-07-09T06:29:57;15.23;85.59
77523;SHT31;66637;-29.628;-49.938;2023-07-09T06:32:49;15.27;85.95
77523;SHT31;66637;-29.628;-49.938;2023-07-09T06:35:23;15.20;85.40
77523;SHT31;66637;-29.628;-49.938;2023-07-09T06:38:09;15.21;85.62
77523;SHT31;66637;-29.628;-49.938;2023-07-09T06:41:04;15.27;85.68
77523;SHT31;66637;-29.628;-49.938;2023-07-09T06:43:59;15.28;85.76
77523;SHT31;66637;-29.628;-49.938;2023-07-09T06:46:53;15.28;85.53
77523;SHT31;66637;-29.628;-49.938;2023-07-09T06:49:54;15.35;85.86
77523;SHT31;66637;-29.628;-49.938;2023-07-09T06:52:58;15.38;85.88
77523;SHT31;66637;-29.628;-49.938;2023-07-09T06:55:57;15.34;85.76
77523;SHT31;66637;-29.628;-49.938;2023-07-09T06:59:00;15.32;85.69
77523;SHT31;66637;-29.628;-49.938;2023-07-09T07:01:46;15.35;85.92
77523;SHT31;66637;-29.628;-49.938;2023-07-09T07:04:36;15.41;85.80
77523;SHT31;66637;-29.628;-49.938;2023-07-09T07:07:45;15.41;85.78
77523;SHT31;66637;-29.628;-49.938;2023-07-09T07:10:29;15.47;85.89
77523;SHT31;66637;-29.628;-49.938;2023-07-09T07:13:19;15.55;85.76
77523;SHT31;66637;-29.628;-49.938;2023-07-09T07:16:29;15.55;85.69
77523;SHT31;66637;-29.628;-49.938;2023-07-09T07:19:17;15.61;85.73
77523;SHT31;66637;-29.628;-49.938;2023-07-09T07:21:50;15.65;85.79
77523;SHT31;66637;-29.628;-49.938;2023-07-09T07:25:16;15.62;85.50
77523;SHT31;66637;-29.628;-49.938;2023-07-09T07:28:35;15.61;85.49
77523;SHT31;66637;-29.628;-49.938;2023-07-09T07:34:39;15.55;85.20
77523;SHT31;66637;-29.628;-49.938;2023-07-09T07:37:49;15.47;85.21
77523;SHT31;66637;-29.628;-49.938;2023-07-09T07:40:57;15.47;85.28
77523;SHT31;66637;-29.628;-49.938;2023-07-09T07:43:45;15.51;85.35
77523;SHT31;66637;-29.628;-49.938;2023-07-09T07:46:41;15.42;85.27
77523;SHT31;66637;-29.628;-49.938;2023-07-09T07:49:40;15.37;85.25
77523;SHT31;66637;-29.628;-49.938;2023-07-09T07:52:30;15.31;85.22
77523;SHT31;66637;-29.628;-49.938;2023-07-09T07:55:29;15.32;85.40
77523;SHT31;66637;-29.628;-49.938;2023-07-09T07:58:16;15.25;85.40
77523;SHT31;66637;-29.628;-49.938;2023-07-09T08:01:07;15.32;85.50
77523;SHT31;66637;-29.628;-49.938;2023-07-09T08:03:47;15.28;84.98
77523;SHT31;66637;-29.628;-49.938;2023-07-09T08:06:47;15.28;85.10
77523;SHT31;66637;-29.628;-49.938;2023-07-09T08:09:47;15.27;85.01
77523;SHT31;66637;-29.628;-49.938;2023-07-09T08:12:48;15.23;85.12
77523;SHT31;66637;-29.628;-49.938;2023-07-09T08:15:50;15.24;85.10
77523;SHT31;66637;-29.628;-49.938;2023-07-09T08:18:36;15.24;85.21
77523;SHT31;66637;-29.628;-49.938;2023-07-09T08:21:21;15.23;85.18
77523;SHT31;66637;-29.628;-49.938;2023-07-09T08:23:57;15.21;84.79
77523;SHT31;66637;-29.628;-49.938;2023-07-09T08:26:47;15.20;85.08
77523;SHT31;66637;-29.628;-49.938;2023-07-09T08:29:31;15.12;84.85
77523;SHT31;66637;-29.628;-49.938;2023-07-09T08:32:32;15.14;85.07
77523;SHT31;66637;-29.628;-49.938;2023-07-09T08:35:32;15.11;84.90
77523;SHT31;66637;-29.628;-49.938;2023-07-09T08:38:22;15.08;84.86
77523;SHT31;66637;-29.628;-49.938;2023-07-09T08:42:02;15.10;85.01
77523;SHT31;66637;-29.628;-49.938;2023-07-09T08:48:38;14.95;85.07
77523;SHT31;66637;-29.628;-49.938;2023-07-09T08:51:42;14.95;85.15
77523;SHT31;66637;-29.628;-49.938;2023-07-09T08:54:43;14.94;85.04
77523;SHT31;66637;-29.628;-49.938;2023-07-09T08:57:54;15.03;85.28
77523;SHT31;66637;-29.628;-49.938;2023-07-09T09:01:04;15.05;85.22
77523;SHT31;66637;-29.628;-49.938;2023-07-09T09:04:25;14.97;84.81
77523;SHT31;66637;-29.628;-49.938;2023-07-09T09:10:00;15.01;85.18
77523;SHT31;66637;-29.628;-49.938;2023-07-09T09:13:13;14.97;85.01
77523;SHT31;66637;-29.628;-49.938;2023-07-09T09:16:17;15.00;85.11
77523;SHT31;66637;-29.628;-49.938;2023-07-09T09:19:00;15.08;85.12
77523;SHT31;66637;-29.628;-49.938;2023-07-09T09:22:17;15.11;85.18
77523;SHT31;66637;-29.628;-49.938;2023-07-09T09:25:31;15.17;85.22
77523;SHT31;66637;-29.628;-49.938;2023-07-09T09:28:20;15.10;84.83
77523;SHT31;66637;-29.628;-49.938;2023-07-09T09:31:18;15.05;84.87
77523;SHT31;66637;-29.628;-49.938;2023-07-09T09:34:34;15.17;84.98
77523;SHT31;66637;-29.628;-49.938;2023-07-09T09:37:44;15.12;84.91
77523;SHT31;66637;-29.628;-49.938;2023-07-09T09:41:02;15.15;84.91
77523;SHT31;66637;-29.628;-49.938;2023-07-09T09:43:53;15.11;84.72
77523;SHT31;66637;-29.628;-49.938;2023-07-09T09:47:03;15.14;84.86
77523;SHT31;66637;-29.628;-49.938;2023-07-09T09:50:02;15.11;84.88
77523;SHT31;66637;-29.628;-49.938;2023-07-09T09:53:44;15.05;84.89
77523;SHT31;66637;-29.628;-49.938;2023-07-09T09:57:00;15.11;85.07
77523;SHT31;66637;-29.628;-49.938;2023-07-09T09:59:36;15.08;84.91
77523;SHT31;66637;-29.628;-49.938;2023-07-09T10:02:57;15.10;84.94
77523;SHT31;66637;-29.628;-49.938;2023-07-09T10:16:41;15.15;84.94
77523;SHT31;66637;-29.628;-49.938;2023-07-09T10:23:07;15.23;84.76
77523;SHT31;66637;-29.628;-49.938;2023-07-09T10:26:16;15.25;84.71
77523;SHT31;66637;-29.628;-49.938;2023-07-09T10:29:39;15.30;84.82
77523;SHT31;66637;-29.628;-49.938;2023-07-09T10:36:22;15.42;84.64
77523;SHT31;66637;-29.628;-49.938;2023-07-09T10:39:32;15.47;84.42
77523;SHT31;66637;-29.628;-49.938;2023-07-09T10:42:45;15.48;84.37
77523;SHT31;66637;-29.628;-49.938;2023-07-09T10:45:49;15.58;84.35
77523;SHT31;66637;-29.628;-49.938;2023-07-09T10:48:55;15.68;84.32
77523;SHT31;66637;-29.628;-49.938;2023-07-09T10:52:41;15.75;84.24
77523;SHT31;66637;-29.628;-49.938;2023-07-09T10:56:11;15.78;84.17
77523;SHT31;66637;-29.628;-49.938;2023-07-09T10:59:31;15.90;83.95
77523;SHT31;66637;-29.628;-49.938;2023-07-09T11:02:24;15.96;83.89
77523;SHT31;66637;-29.628;-49.938;2023-07-09T11:05:19;15.92;83.81
77523;SHT31;66637;-29.628;-49.938;2023-07-09T11:08:44;15.93;83.93
77523;SHT31;66637;-29.628;-49.938;2023-07-09T11:12:14;15.98;83.88
77523;SHT31;66637;-29.628;-49.938;2023-07-09T11:15:34;16.14;83.55
77523;SHT31;66637;-29.628;-49.938;2023-07-09T11:18:24;16.24;83.25
77523;SHT31;66637;-29.628;-49.938;2023-07-09T11:21:21;16.37;83.19
77523;SHT31;66637;-29.628;-49.938;2023-07-09T11:24:33;16.24;83.35
77523;SHT31;66637;-29.628;-49.938;2023-07-09T11:27:25;16.24;83.23
77523;SHT31;66637;-29.628;-49.938;2023-07-09T11:30:28;16.53;82.41
77523;SHT31;66637;-29.628;-49.938;2023-07-09T11:33:47;17.00;81.10
77523;SHT31;66637;-29.628;-49.938;2023-07-09T11:36:58;17.43;80.94
77523;SHT31;66637;-29.628;-49.938;2023-07-09T11:39:49;17.47;79.69
77523;SHT31;66637;-29.628;-49.938;2023-07-09T11:42:58;17.19;80.60
77523;SHT31;66637;-29.628;-49.938;2023-07-09T11:45:49;17.12;80.58
77523;SHT31;66637;-29.628;-49.938;2023-07-09T11:48:56;17.21;80.63
77523;SHT31;66637;-29.628;-49.938;2023-07-09T11:52:09;17.73;79.69
77523;SHT31;66637;-29.628;-49.938;2023-07-09T11:54:54;17.55;79.81
77523;SHT31;66637;-29.628;-49.938;2023-07-09T11:57:59;17.50;80.46
77523;SHT31;66637;-29.628;-49.938;2023-07-09T12:00:58;17.61;80.31
77523;SHT31;66637;-29.628;-49.938;2023-07-09T12:03:57;17.67;80.00
77523;SHT31;66637;-29.628;-49.938;2023-07-09T12:07:03;18.14;78.84
77523;SHT31;66637;-29.628;-49.938;2023-07-09T12:09:55;18.48;78.01
77523;SHT31;66637;-29.628;-49.938;2023-07-09T12:12:42;18.55;78.13
77523;SHT31;66637;-29.628;-49.938;2023-07-09T12:16:35;19.19;77.46
77523;SHT31;66637;-29.628;-49.938;2023-07-09T12:19:54;19.56;76.15
77523;SHT31;66637;-29.628;-49.938;2023-07-09T12:22:27;19.39;76.16
77523;SHT31;66637;-29.628;-49.938;2023-07-09T12:25:01;18.99;76.73
77523;SHT31;66637;-29.628;-49.938;2023-07-09T12:28:26;19.43;75.53
77523;SHT31;66637;-29.628;-49.938;2023-07-09T12:31:15;19.78;75.32
77523;SHT31;66637;-29.628;-49.938;2023-07-09T12:34:10;19.98;74.39
77523;SHT31;66637;-29.628;-49.938;2023-07-09T12:36:49;20.18;74.14
77523;SHT31;66637;-29.628;-49.938;2023-07-09T12:39:29;20.13;73.86
77523;SHT31;66637;-29.628;-49.938;2023-07-09T12:42:31;20.31;73.89
77523;SHT31;66637;-29.628;-49.938;2023-07-09T12:45:04;20.39;73.73
77523;SHT31;66637;-29.628;-49.938;2023-07-09T12:47:47;20.64;73.41
77523;SHT31;66637;-29.628;-49.938;2023-07-09T12:50:47;20.75;72.95
77523;SHT31;66637;-29.628;-49.938;2023-07-09T12:53:42;20.82;72.85
77523;SHT31;66637;-29.628;-49.938;2023-07-09T12:56:56;20.80;72.21
77523;SHT31;66637;-29.628;-49.938;2023-07-09T12:59:42;20.92;72.30
77523;SHT31;66637;-29.628;-49.938;2023-07-09T13:03:12;20.97;72.45
77523;SHT31;66637;-29.628;-49.938;2023-07-09T13:06:40;21.10;72.24
77523;SHT31;66637;-29.628;-49.938;2023-07-09T13:09:55;21.02;71.73
77523;SHT31;66637;-29.628;-49.938;2023-07-09T13:12:38;21.09;72.15
77523;SHT31;66637;-29.628;-49.938;2023-07-09T13:18:09;21.31;71.73
77523;SHT31;66637;-29.628;-49.938;2023-07-09T13:20:43;21.27;71.66
77523;SHT31;66637;-29.628;-49.938;2023-07-09T13:23:19;21.27;71.90
77523;SHT31;66637;-29.628;-49.938;2023-07-09T13:25:51;21.33;72.74
77523;SHT31;66637;-29.628;-49.938;2023-07-09T13:28:27;21.33;71.96
77523;SHT31;66637;-29.628;-49.938;2023-07-09T13:31:10;21.36;71.96
77523;SHT31;66637;-29.628;-49.938;2023-07-09T13:33:54;21.51;71.93
77523;SHT31;66637;-29.628;-49.938;2023-07-09T13:37:12;21.60;71.67
77523;SHT31;66637;-29.628;-49.938;2023-07-09T13:40:10;21.58;70.73
77523;SHT31;66637;-29.628;-49.938;2023-07-09T13:43:29;21.75;71.54
77523;SHT31;66637;-29.628;-49.938;2023-07-09T13:46:34;21.68;70.41
77523;SHT31;66637;-29.628;-49.938;2023-07-09T13:49:52;21.68;70.45
77523;SHT31;66637;-29.628;-49.938;2023-07-09T13:52:37;21.73;70.07
77523;SHT31;66637;-29.628;-49.938;2023-07-09T13:55:20;21.73;70.00
77523;SHT31;66637;-29.628;-49.938;2023-07-09T13:57:51;21.73;69.40
77523;SHT31;66637;-29.628;-49.938;2023-07-09T14:00:23;21.77;69.95
77523;SHT31;66637;-29.628;-49.938;2023-07-09T14:02:55;21.84;69.98
77523;SHT31;66637;-29.628;-49.938;2023-07-09T14:05:26;21.84;70.19
77523;SHT31;66637;-29.628;-49.938;2023-07-09T14:07:57;21.91;70.73
77523;SHT31;66637;-29.628;-49.938;2023-07-09T14:10:28;21.82;70.08
77523;SHT31;66637;-29.628;-49.938;2023-07-09T14:12:58;21.82;70.40
77523;SHT31;66637;-29.628;-49.938;2023-07-09T14:15:32;21.92;69.90
77523;SHT31;66637;-29.628;-49.938;2023-07-09T14:18:02;21.98;70.43
77523;SHT31;66637;-29.628;-49.938;2023-07-09T14:20:32;22.00;69.72
77523;SHT31;66637;-29.628;-49.938;2023-07-09T14:23:03;22.06;69.94
77523;SHT31;66637;-29.628;-49.938;2023-07-09T14:25:33;22.04;70.37
77523;SHT31;66637;-29.628;-49.938;2023-07-09T14:28:18;22.09;69.90
77523;SHT31;66637;-29.628;-49.938;2023-07-09T14:30:50;22.01;68.94
77523;SHT31;66637;-29.628;-49.938;2023-07-09T14:33:25;22.12;70.35
77523;SHT31;66637;-29.628;-49.938;2023-07-09T14:36:18;22.13;69.70
77523;SHT31;66637;-29.628;-49.938;2023-07-09T14:39:36;22.25;69.62
77523;SHT31;66637;-29.628;-49.938;2023-07-09T14:42:15;22.28;69.42
77523;SHT31;66637;-29.628;-49.938;2023-07-09T14:45:24;22.11;69.10
77523;SHT31;66637;-29.628;-49.938;2023-07-09T14:48:15;22.23;70.07
77523;SHT31;66637;-29.628;-49.938;2023-07-09T14:51:29;22.25;69.69
77523;SHT31;66637;-29.628;-49.938;2023-07-09T14:54:40;22.28;69.88
77523;SHT31;66637;-29.628;-49.938;2023-07-09T14:58:27;22.36;70.11
77523;SHT31;66637;-29.628;-49.938;2023-07-09T15:01:35;22.29;69.71
77523;SHT31;66637;-29.628;-49.938;2023-07-09T15:04:41;22.06;70.31
77523;SHT31;66637;-29.628;-49.938;2023-07-09T15:07:20;22.05;70.13
77523;SHT31;66637;-29.628;-49.938;2023-07-09T15:09:50;21.84;70.42
77523;SHT31;66637;-29.628;-49.938;2023-07-09T15:12:25;21.78;70.66
77523;SHT31;66637;-29.628;-49.938;2023-07-09T15:15:23;21.81;71.22
77523;SHT31;66637;-29.628;-49.938;2023-07-09T15:17:51;22.00;70.29
77523;SHT31;66637;-29.628;-49.938;2023-07-09T15:20:25;21.95;70.35
77523;SHT31;66637;-29.628;-49.938;2023-07-09T15:22:58;21.91;70.98
77523;SHT31;66637;-29.628;-49.938;2023-07-09T15:25:30;22.18;70.58
77523;SHT31;66637;-29.628;-49.938;2023-07-09T15:28:00;22.23;70.53
77523;SHT31;66637;-29.628;-49.938;2023-07-09T15:30:32;22.21;70.13
77523;SHT31;66637;-29.628;-49.938;2023-07-09T15:33:04;22.25;70.00
77523;SHT31;66637;-29.628;-49.938;2023-07-09T15:36:00;22.33;69.78
77523;SHT31;66637;-29.628;-49.938;2023-07-09T15:38:44;22.35;70.03
77523;SHT31;66637;-29.628;-49.938;2023-07-09T15:41:31;22.41;69.51
77523;SHT31;66637;-29.628;-49.938;2023-07-09T15:44:18;22.45;69.96
77523;SHT31;66637;-29.628;-49.938;2023-07-09T15:47:04;22.21;70.45
77523;SHT31;66637;-29.628;-49.938;2023-07-09T15:50:25;22.26;69.73
77523;SHT31;66637;-29.628;-49.938;2023-07-09T15:53:13;22.29;70.04
77523;SHT31;66637;-29.628;-49.938;2023-07-09T15:56:05;22.22;69.82
77523;SHT31;66637;-29.628;-49.938;2023-07-09T15:58:46;22.25;69.58
77523;SHT31;66637;-29.628;-49.938;2023-07-09T16:01:34;22.25;69.80
77523;SHT31;66637;-29.628;-49.938;2023-07-09T16:04:21;22.28;70.26
77523;SHT31;66637;-29.628;-49.938;2023-07-09T16:07:04;22.39;69.75
77523;SHT31;66637;-29.628;-49.938;2023-07-09T16:10:08;22.38;69.95
77523;SHT31;66637;-29.628;-49.938;2023-07-09T16:13:23;22.35;70.36
77523;SHT31;66637;-29.628;-49.938;2023-07-09T16:16:17;22.01;69.11
77523;SHT31;66637;-29.628;-49.938;2023-07-09T16:19:50;22.05;69.27
77523;SHT31;66637;-29.628;-49.938;2023-07-09T16:22:21;22.06;69.27
77523;SHT31;66637;-29.628;-49.938;2023-07-09T16:24:52;22.04;69.24
77523;SHT31;66637;-29.628;-49.938;2023-07-09T16:27:22;22.02;69.22
77523;SHT31;66637;-29.628;-49.938;2023-07-09T16:29:53;22.08;68.80
77523;SHT31;66637;-29.628;-49.938;2023-07-09T16:32:45;21.98;69.56
77523;SHT31;66637;-29.628;-49.938;2023-07-09T16:35:35;22.02;68.90
77523;SHT31;66637;-29.628;-49.938;2023-07-09T16:38:40;22.00;69.34
77523;SHT31;66637;-29.628;-49.938;2023-07-09T16:41:52;22.09;68.79
77523;SHT31;66637;-29.628;-49.938;2023-07-09T16:45:16;22.08;69.50
77523;SHT31;66637;-29.628;-49.938;2023-07-09T16:48:38;21.97;68.86
77523;SHT31;66637;-29.628;-49.938;2023-07-09T16:51:35;21.91;68.43
77523;SHT31;66637;-29.628;-49.938;2023-07-09T16:54:23;21.91;68.19
77523;SHT31;66637;-29.628;-49.938;2023-07-09T16:57:33;21.90;69.16
77523;SHT31;66637;-29.628;-49.938;2023-07-09T17:00:35;21.98;69.53
77523;SHT31;66637;-29.628;-49.938;2023-07-09T17:03:20;21.90;69.76
77523;SHT31;66637;-29.628;-49.938;2023-07-09T17:06:01;21.77;69.56
77523;SHT31;66637;-29.628;-49.938;2023-07-09T17:08:36;21.71;69.07
77523;SHT31;66637;-29.628;-49.938;2023-07-09T17:11:13;21.75;70.00
77523;SHT31;66637;-29.628;-49.938;2023-07-09T17:14:25;21.77;70.58
77523;SHT31;66637;-29.628;-49.938;2023-07-09T17:17:18;21.67;70.44
77523;SHT31;66637;-29.628;-49.938;2023-07-09T17:20:07;21.67;70.56
77523;SHT31;66637;-29.628;-49.938;2023-07-09T17:22:54;21.62;70.58
77523;SHT31;66637;-29.628;-49.938;2023-07-09T17:25:46;21.61;71.14
77523;SHT31;66637;-29.628;-49.938;2023-07-09T17:28:38;21.53;70.82
77523;SHT31;66637;-29.628;-49.938;2023-07-09T17:31:20;21.61;70.82
77523;SHT31;66637;-29.628;-49.938;2023-07-09T17:34:06;21.53;71.00
77523;SHT31;66637;-29.628;-49.938;2023-07-09T17:37:02;21.44;70.87
77523;SHT31;66637;-29.628;-49.938;2023-07-09T17:39:32;21.48;70.60
77523;SHT31;66637;-29.628;-49.938;2023-07-09T17:42:12;21.51;71.18
77523;SHT31;66637;-29.628;-49.938;2023-07-09T17:44:48;21.47;71.01
77523;SHT31;66637;-29.628;-49.938;2023-07-09T17:47:37;21.44;70.62
77523;SHT31;66637;-29.628;-49.938;2023-07-09T17:50:48;21.43;70.96
77523;SHT31;66637;-29.628;-49.938;2023-07-09T17:53:37;21.38;70.47
77523;SHT31;66637;-29.628;-49.938;2023-07-09T17:56:33;21.37;71.07
77523;SHT31;66637;-29.628;-49.938;2023-07-09T17:59:38;21.40;71.11
77523;SHT31;66637;-29.628;-49.938;2023-07-09T18:02:37;21.40;70.79
77523;SHT31;66637;-29.628;-49.938;2023-07-09T18:05:28;21.31;71.09
77523;SHT31;66637;-29.628;-49.938;2023-07-09T18:08:17;21.29;71.28
77523;SHT31;66637;-29.628;-49.938;2023-07-09T18:11:11;21.43;71.24
77523;SHT31;66637;-29.628;-49.938;2023-07-09T18:14:36;21.31;71.53